Time;durP1;ratioP1;P1;durP2;ratioP2;P2;SDS_P1;SDS_P2;PMS_P1;PMS_P2;Temp;Humidity;BMP_temperature;BMP_pressure;BME280_temperature;BME280_humidity;BME280_pressure;Samples;Min_cycle;Max_cycle;Signal;HPM_P1;HPM_P2
2023/03/09 00:30:35;;;;;;;2.33;1.08;;;8.70;99.90;;;;;;6146493;23;20033;31
2023/03/09 00:36:19;;;;;;;3.72;1.15;;;8.70;99.90;;;;;;6200269;23;20094;-80
2023/03/09 00:38:52;;;;;;;5.03;1.27;;;8.70;99.90;;;;;;6195750;22;20112;-80
2023/03/09 00:47:52;;;;;;;3.90;1.00;;;8.80;99.90;;;;;;6202053;23;20012;-81
2023/03/09 00:50:20;;;;;;;5.25;1.00;;;8.80;99.90;;;;;;6164811;23;20100;-80
2023/03/09 00:52:55;;;;;;;2.47;0.98;;;8.80;99.90;;;;;;6141918;23;20029;-80
2023/03/09 00:55:50;;;;;;;2.33;0.80;;;8.80;99.90;;;;;;6159596;23;20015;-81
2023/03/09 00:58:18;;;;;;;2.95;0.80;;;8.80;99.90;;;;;;6137433;23;21552;-80
2023/03/09 01:10:39;;;;;;;3.20;0.98;;;8.90;99.90;;;;;;6106610;23;20093;-82
2023/03/09 01:16:25;;;;;;;4.00;0.80;;;8.80;99.90;;;;;;6177437;22;20029;-81
2023/03/09 01:19:16;;;;;;;2.10;1.08;;;8.50;99.90;;;;;;6143462;23;20017;-80
2023/03/09 01:22:31;;;;;;;3.25;1.25;;;8.70;99.90;;;;;;6174350;23;20025;31
2023/03/09 01:25:13;;;;;;;3.42;1.05;;;8.60;99.90;;;;;;6146426;23;20052;-80
2023/03/09 01:27:40;;;;;;;4.65;0.90;;;8.60;99.90;;;;;;6204968;23;20024;-80
2023/03/09 01:39:18;;;;;;;2.50;0.80;;;8.40;99.90;;;;;;6210799;23;20040;-81
2023/03/09 02:42:04;;;;;;;2.58;1.02;;;7.60;99.90;;;;;;6206903;23;20251;-80
2023/03/09 03:34:38;;;;;;;4.53;1.00;;;7.60;99.90;;;;;;6175148;23;20021;-80
2023/03/09 03:37:51;;;;;;;2.55;1.27;;;7.50;99.90;;;;;;6141997;23;20029;31
2023/03/09 03:40:26;;;;;;;4.55;1.30;;;7.60;99.90;;;;;;6145049;23;20022;-81
2023/03/09 03:49:05;;;;;;;3.42;1.17;;;7.50;99.90;;;;;;6140226;23;20133;-80
2023/03/09 03:54:58;;;;;;;4.20;1.35;;;7.50;99.90;;;;;;6128573;23;20644;31
2023/03/09 03:57:27;;;;;;;3.53;1.02;;;7.50;99.90;;;;;;6135916;23;20062;-81
2023/03/09 04:03:27;;;;;;;5.28;1.25;;;7.40;99.90;;;;;;6132348;23;20029;-80
2023/03/09 04:22:31;;;;;;;5.60;1.52;;;7.20;99.90;;;;;;6135211;23;20022;-79
2023/03/09 04:28:02;;;;;;;4.80;1.40;;;7.10;99.90;;;;;;6201108;23;20039;-80
2023/03/09 04:33:34;;;;;;;4.38;1.35;;;6.90;99.90;;;;;;6202776;23;20035;-80
2023/03/09 04:36:03;;;;;;;3.80;1.70;;;7.10;99.90;;;;;;6200938;23;20010;-80
2023/03/09 04:38:35;;;;;;;5.20;1.98;;;7.00;99.90;;;;;;6162631;23;20035;-80
2023/03/09 04:41:03;;;;;;;6.82;1.75;;;7.00;99.90;;;;;;6187935;23;20100;-79
2023/03/09 04:43:31;;;;;;;5.25;1.77;;;7.00;99.90;;;;;;6152459;23;20054;-80
2023/03/09 04:49:30;;;;;;;6.53;3.00;;;7.00;99.90;;;;;;6181905;23;20243;-80
2023/03/09 04:51:58;;;;;;;4.88;2.20;;;6.90;99.90;;;;;;6160068;23;20852;-80
2023/03/09 04:54:28;;;;;;;5.95;2.40;;;6.90;99.90;;;;;;6202901;23;20017;-80
2023/03/09 06:01:55;;;;;;;4.63;1.98;;;7.10;99.90;;;;;;6134458;23;20057;-79
2023/03/09 06:04:26;;;;;;;5.97;1.92;;;7.10;99.90;;;;;;6128873;23;20029;-80
2023/03/09 06:10:32;;;;;;;4.40;2.17;;;7.20;99.90;;;;;;6148192;23;20025;31
2023/03/09 06:13:03;;;;;;;3.80;1.50;;;7.20;99.90;;;;;;6141834;23;20032;-80
2023/03/09 06:15:31;;;;;;;5.40;1.60;;;7.20;99.90;;;;;;6122692;23;20477;-80
2023/03/09 06:17:59;;;;;;;5.32;2.25;;;7.40;99.90;;;;;;6137780;23;20018;-80
2023/03/09 06:20:30;;;;;;;5.55;2.22;;;7.30;99.90;;;;;;6106579;23;20026;-80
2023/03/09 06:23:03;;;;;;;5.90;2.28;;;7.30;99.90;;;;;;6138321;23;20565;-81
2023/03/09 06:25:33;;;;;;;5.57;3.42;;;7.20;99.90;;;;;;6140586;23;20026;-80
2023/03/09 06:28:06;;;;;;;5.18;2.40;;;7.20;99.90;;;;;;6145736;23;20026;-80
2023/03/09 06:30:40;;;;;;;5.03;1.67;;;7.30;99.90;;;;;;6136882;23;20028;-81
2023/03/09 06:33:10;;;;;;;4.85;2.05;;;7.40;99.90;;;;;;6134225;23;20042;-80
2023/03/09 06:35:45;;;;;;;8.10;2.17;;;7.60;99.90;;;;;;6119378;23;20022;-81
2023/03/09 06:38:13;;;;;;;5.65;2.22;;;7.50;99.90;;;;;;6153461;23;20026;-81
2023/03/09 06:40:48;;;;;;;5.97;2.10;;;7.50;99.90;;;;;;6175349;23;20044;-81
2023/03/09 06:43:19;;;;;;;6.05;2.47;;;7.50;99.90;;;;;;6172173;23;20018;-80
2023/03/09 06:51:52;;;;;;;6.40;2.17;;;7.80;99.90;;;;;;6179216;23;20028;-81
2023/03/09 06:54:23;;;;;;;3.50;1.77;;;7.80;99.90;;;;;;6157848;23;20013;-82
2023/03/09 06:57:05;;;;;;;6.63;2.28;;;6.80;99.90;;;;;;6068190;23;20023;-81
2023/03/09 06:59:37;;;;;;;7.47;3.28;;;7.90;99.90;;;;;;6061547;23;20035;-81
2023/03/09 07:02:11;;;;;;;15.73;7.45;;;7.80;99.90;;;;;;6063190;23;20014;-81
2023/03/09 07:04:55;;;;;;;14.85;7.30;;;7.90;99.90;;;;;;6018314;23;19999;-82
2023/03/09 07:07:24;;;;;;;14.15;5.72;;;8.00;99.90;;;;;;6031497;23;20023;-82
2023/03/09 07:09:53;;;;;;;11.88;5.80;;;7.90;99.90;;;;;;6080629;23;20030;-82
2023/03/09 07:12:21;;;;;;;11.63;4.32;;;8.00;99.90;;;;;;6089536;23;20003;-82
2023/03/09 07:14:49;;;;;;;12.45;3.95;;;7.90;99.90;;;;;;6069611;23;20066;-82
2023/03/09 07:17:30;;;;;;;6.90;2.70;;;7.90;99.90;;;;;;6121497;23;20010;-82
2023/03/09 07:20:10;;;;;;;6.78;2.70;;;8.00;99.90;;;;;;6099715;23;20007;-82
2023/03/09 07:23:29;;;;;;;6.38;2.22;;;8.10;99.90;;;;;;6034279;23;20031;-82
2023/03/09 07:26:04;;;;;;;5.05;2.50;;;8.10;99.90;;;;;;6039686;23;20022;-82
2023/03/09 07:35:17;;;;;;;7.05;2.38;;;8.20;99.90;;;;;;6106965;23;20029;-80
2023/03/09 07:37:47;;;;;;;6.18;2.55;;;8.30;99.90;;;;;;6117886;23;20464;-80
2023/03/09 07:40:16;;;;;;;8.40;2.97;;;8.50;99.90;;;;;;6122643;23;20064;-80
2023/03/09 07:42:49;;;;;;;8.45;2.90;;;8.40;99.90;;;;;;6136016;23;20022;-81
2023/03/09 07:45:32;;;;;;;10.00;2.40;;;8.30;99.90;;;;;;6138496;23;20082;-80
2023/03/09 07:51:07;;;;;;;8.00;2.55;;;8.60;99.90;;;;;;6167855;23;19962;-81
2023/03/09 07:56:33;;;;;;;5.35;2.00;;;8.80;99.90;;;;;;6125885;23;20057;-82
2023/03/09 07:59:01;;;;;;;7.72;1.83;;;8.70;99.90;;;;;;6119670;23;20029;-81
2023/03/09 08:01:33;;;;;;;6.38;2.10;;;8.90;99.90;;;;;;6137274;23;20018;-81
2023/03/09 08:04:00;;;;;;;4.93;1.65;;;8.90;99.90;;;;;;6129418;23;20033;-81
2023/03/09 08:06:28;;;;;;;9.73;2.58;;;8.90;99.90;;;;;;6134600;23;20014;-80
2023/03/09 08:08:58;;;;;;;4.93;1.60;;;8.80;99.90;;;;;;6131637;23;20035;-80
2023/03/09 08:11:29;;;;;;;4.30;1.63;;;9.10;99.90;;;;;;6178995;23;20039;-80
2023/03/09 08:13:56;;;;;;;7.57;3.75;;;9.00;99.90;;;;;;6177194;23;20467;-80
2023/03/09 08:16:23;;;;;;;3.70;1.83;;;9.20;99.90;;;;;;6159077;23;20025;-80
2023/03/09 08:18:51;;;;;;;3.42;1.60;;;9.10;99.90;;;;;;6178186;23;20064;-81
2023/03/09 08:21:18;;;;;;;3.65;1.48;;;9.40;99.90;;;;;;6163276;23;20017;-80
2023/03/09 08:23:46;;;;;;;4.85;1.42;;;9.20;99.90;;;;;;6152676;23;20048;-80
2023/03/09 08:26:15;;;;;;;8.02;2.65;;;9.30;99.90;;;;;;6178222;23;20021;-80
2023/03/09 08:28:43;;;;;;;5.18;1.60;;;9.40;99.90;;;;;;6184465;23;20103;-80
2023/03/09 08:31:14;;;;;;;5.57;1.48;;;9.60;99.90;;;;;;6190357;23;20048;-80
2023/03/09 08:33:41;;;;;;;4.85;1.20;;;9.40;99.90;;;;;;6207327;23;20716;-80
2023/03/09 08:36:18;;;;;;;6.97;1.88;;;9.60;99.90;;;;;;6184173;23;20028;-80
2023/03/09 08:38:48;;;;;;;3.75;1.15;;;9.60;99.90;;;;;;6175890;23;20316;-80
2023/03/09 08:41:16;;;;;;;3.30;1.17;;;9.90;99.90;;;;;;6151936;23;20032;-80
2023/03/09 08:43:44;;;;;;;4.07;1.60;;;9.90;99.90;;;;;;6184136;23;20023;-80
2023/03/09 08:46:12;;;;;;;5.78;1.23;;;10.10;99.90;;;;;;6158397;23;20598;-80
2023/03/09 08:48:41;;;;;;;3.67;0.98;;;10.10;99.90;;;;;;6166831;23;20089;-80
2023/03/09 08:51:28;;;;;;;5.10;1.85;;;10.10;99.90;;;;;;6187436;23;20032;-80
2023/03/09 08:54:24;;;;;;;4.25;1.70;;;10.20;99.90;;;;;;6111256;23;20062;-80
2023/03/09 09:00:52;;;;;;;2.33;0.70;;;10.40;99.90;;;;;;6180299;23;20060;-80
2023/03/09 09:03:19;;;;;;;3.47;1.38;;;10.40;99.90;;;;;;6083154;23;20052;-80
2023/03/09 09:05:50;;;;;;;4.40;1.90;;;10.50;99.90;;;;;;6128275;23;20021;-80
2023/03/09 09:08:24;;;;;;;6.00;1.60;;;10.30;99.90;;;;;;6137209;23;20021;-80
2023/03/09 09:14:16;;;;;;;6.32;1.45;;;10.30;99.90;;;;;;6165598;23;20056;-81
2023/03/09 09:16:44;;;;;;;4.57;1.63;;;10.20;99.90;;;;;;6185947;23;20055;-81
2023/03/09 09:19:14;;;;;;;4.82;1.60;;;10.20;99.90;;;;;;6152124;23;20026;-80
2023/03/09 09:24:39;;;;;;;3.65;1.42;;;10.70;99.90;;;;;;6177010;23;20083;-81
2023/03/09 09:27:11;;;;;;;3.53;1.60;;;11.40;99.90;;;;;;6118371;23;20013;-81
2023/03/09 09:29:41;;;;;;;7.82;1.88;;;11.00;99.90;;;;;;6140420;23;20013;-81
2023/03/09 09:35:25;;;;;;;4.07;1.52;;;11.30;99.90;;;;;;6071461;23;21142;-81
2023/03/09 09:37:54;;;;;;;4.70;1.42;;;11.40;99.90;;;;;;6146872;23;20332;-82
2023/03/09 09:40:22;;;;;;;5.00;1.60;;;11.60;99.90;;;;;;6162650;23;20016;-81
2023/03/09 09:42:53;;;;;;;5.97;1.35;;;12.00;99.90;;;;;;6164810;23;20487;-81
2023/03/09 09:45:30;;;;;;;5.03;1.52;;;11.90;99.90;;;;;;6170685;23;19997;-82
2023/03/09 09:48:04;;;;;;;4.70;1.33;;;12.00;99.90;;;;;;6186306;23;20024;-81
2023/03/09 09:51:12;;;;;;;3.78;1.02;;;12.30;99.90;;;;;;6164348;23;20013;-81
2023/03/09 09:54:06;;;;;;;3.15;1.92;;;12.70;99.90;;;;;;6113855;23;20480;-81
2023/03/09 09:56:45;;;;;;;1.65;0.88;;;13.10;99.90;;;;;;6133695;23;20096;-81
2023/03/09 09:59:27;;;;;;;2.38;1.10;;;13.10;99.90;;;;;;6135494;23;20048;-80
2023/03/09 10:01:55;;;;;;;2.83;0.70;;;13.20;99.90;;;;;;6156257;23;20043;-80
2023/03/09 10:04:37;;;;;;;3.13;0.75;;;13.30;99.90;;;;;;6152079;23;20025;-80
2023/03/09 10:07:15;;;;;;;2.53;0.60;;;13.60;99.90;;;;;;6186744;23;20021;-81
2023/03/09 10:10:05;;;;;;;6.15;1.00;;;13.70;99.90;;;;;;6108445;23;20076;-81
2023/03/09 10:12:34;;;;;;;1.88;0.60;;;13.90;98.60;;;;;;6182768;23;20020;-80
2023/03/09 10:15:11;;;;;;;6.80;0.82;;;14.30;97.20;;;;;;6181207;23;20033;-80
2023/03/09 10:17:46;;;;;;;3.70;0.93;;;14.60;97.10;;;;;;6179124;23;20025;-81
2023/03/09 10:20:30;;;;;;;5.57;0.63;;;14.60;96.00;;;;;;6176089;23;20020;-80
2023/03/09 10:22:57;;;;;;;4.70;0.63;;;14.60;95.40;;;;;;6181446;23;20032;-81
2023/03/09 10:25:29;;;;;;;5.50;0.60;;;15.00;95.10;;;;;;6177233;23;20016;-80
2023/03/09 10:28:14;;;;;;;2.83;0.60;;;14.60;94.60;;;;;;6149529;23;20100;-80
2023/03/09 10:30:45;;;;;;;5.68;0.75;;;14.50;94.60;;;;;;6177709;23;20035;-80
2023/03/09 10:33:26;;;;;;;6.03;1.40;;;14.20;94.60;;;;;;6147685;23;20025;-80
2023/03/09 10:35:59;;;;;;;8.02;1.73;;;14.50;94.20;;;;;;6179791;23;20600;-81
2023/03/09 10:38:27;;;;;;;4.80;1.90;;;14.70;94.20;;;;;;6177502;23;20167;-80
2023/03/09 10:40:56;;;;;;;6.78;1.70;;;15.00;93.70;;;;;;6155299;23;20020;-80
2023/03/09 10:43:34;;;;;;;6.45;2.40;;;15.30;92.90;;;;;;6179184;23;20035;-80
2023/03/09 10:46:23;;;;;;;8.45;1.20;;;15.30;92.30;;;;;;6129327;23;20025;-80
2023/03/09 10:49:12;;;;;;;4.65;1.67;;;15.30;92.30;;;;;;6151542;23;20087;-80
2023/03/09 10:52:02;;;;;;;5.22;1.10;;;15.50;92.20;;;;;;6176520;23;20025;-80
2023/03/09 10:54:37;;;;;;;2.42;0.82;;;15.40;92.50;;;;;;6156132;23;20052;-80
2023/03/09 10:57:22;;;;;;;8.38;0.93;;;15.40;91.80;;;;;;6152689;23;20452;-81
2023/03/09 11:00:14;;;;;;;3.45;0.57;;;15.40;91.50;;;;;;6154863;23;20021;-80
2023/03/09 11:02:55;;;;;;;2.00;0.52;;;15.40;91.10;;;;;;6172085;23;20025;-80
2023/03/09 11:05:26;;;;;;;3.20;0.63;;;15.90;91.00;;;;;;6157129;23;20353;-81
2023/03/09 11:08:02;;;;;;;1.83;0.82;;;16.10;90.80;;;;;;6181109;23;20017;-80
2023/03/09 11:10:35;;;;;;;2.80;0.50;;;16.20;89.80;;;;;;6124858;23;20131;-81
2023/03/09 11:13:04;;;;;;;3.50;0.60;;;16.00;89.70;;;;;;6155076;23;20068;-81
2023/03/09 11:15:37;;;;;;;1.70;0.98;;;16.10;90.40;;;;;;6132073;23;20036;-81
2023/03/09 11:18:33;;;;;;;7.93;1.20;;;16.10;90.10;;;;;;6153858;23;20093;-81
2023/03/09 11:21:03;;;;;;;4.78;0.65;;;16.00;90.00;;;;;;6102774;23;20027;-81
2023/03/09 11:23:48;;;;;;;5.15;0.77;;;15.80;90.00;;;;;;6157150;23;20334;-80
2023/03/09 11:26:34;;;;;;;4.88;0.90;;;15.70;90.30;;;;;;6148962;23;20005;-81
2023/03/09 11:29:01;;;;;;;3.80;0.80;;;15.60;90.40;;;;;;6176642;23;20036;-80
2023/03/09 11:31:36;;;;;;;3.92;1.15;;;15.60;90.80;;;;;;6177326;23;20690;-81
2023/03/09 11:34:14;;;;;;;3.58;0.60;;;15.60;90.50;;;;;;6173492;23;20025;-80
2023/03/09 11:37:21;;;;;;;3.72;0.98;;;15.60;90.60;;;;;;6107273;23;20477;-80
2023/03/09 11:40:10;;;;;;;4.45;0.90;;;15.60;90.50;;;;;;6114287;23;20100;-80
2023/03/09 11:43:15;;;;;;;2.33;0.28;;;15.70;88.30;;;;;;6093944;23;20042;-80
2023/03/09 11:45:45;;;;;;;1.63;0.25;;;16.00;86.20;;;;;;6074555;23;20080;-81
2023/03/09 11:48:35;;;;;;;1.45;0.40;;;15.90;86.10;;;;;;6117215;23;20017;-81
2023/03/09 11:51:41;;;;;;;5.57;0.32;;;15.80;85.30;;;;;;6113619;23;20456;-81
2023/03/09 11:54:27;;;;;;;2.72;0.35;;;15.80;85.90;;;;;;6113673;23;20033;-81
2023/03/09 11:56:59;;;;;;;3.42;0.32;;;15.60;85.40;;;;;;6173304;23;20048;-80
2023/03/09 11:59:36;;;;;;;3.30;0.40;;;15.70;85.70;;;;;;6145580;23;20029;-80
2023/03/09 12:02:42;;;;;;;3.60;0.40;;;15.80;86.10;;;;;;6173027;23;20025;-81
2023/03/09 12:05:14;;;;;;;3.17;0.50;;;15.60;86.20;;;;;;6150909;23;20439;-81
2023/03/09 12:07:53;;;;;;;;;;;15.50;86.30;;;;;;6155703;23;20029;-81
2023/03/09 12:10:32;;;;;;;2.35;1.02;;;15.50;86.70;;;;;;6146014;23;19983;-81
2023/03/09 12:13:16;;;;;;;4.68;1.48;;;15.40;84.80;;;;;;6173125;23;20041;-81
2023/03/09 12:15:54;;;;;;;4.78;1.42;;;15.50;82.40;;;;;;6173726;23;20016;-81
2023/03/09 12:19:01;;;;;;;3.38;1.40;;;15.50;82.90;;;;;;6173058;23;20040;-81
2023/03/09 12:21:38;;;;;;;2.70;0.77;;;15.50;80.90;;;;;;6141044;23;20024;-80
2023/03/09 12:24:37;;;;;;;2.83;1.00;;;15.50;79.80;;;;;;6170411;23;20432;-80
2023/03/09 12:27:15;;;;;;;2.67;1.13;;;15.50;80.10;;;;;;6169085;23;20017;-81
2023/03/09 12:29:50;;;;;;;1.85;0.68;;;15.60;80.10;;;;;;6147389;23;20471;-81
2023/03/09 12:32:33;;;;;;;3.88;1.17;;;15.60;80.60;;;;;;6144407;23;20025;-81
2023/03/09 12:35:32;;;;;;;1.80;0.63;;;15.30;80.40;;;;;;6169389;23;20024;-80
2023/03/09 12:38:22;;;;;;;3.45;0.90;;;15.50;79.60;;;;;;6122140;23;20025;-81
2023/03/09 12:40:51;;;;;;;4.93;0.77;;;15.40;79.00;;;;;;6145935;23;20024;-80
2023/03/09 12:43:21;;;;;;;3.25;0.70;;;15.40;79.90;;;;;;6168008;23;20025;-80
2023/03/09 12:45:50;;;;;;;5.07;0.52;;;15.30;78.70;;;;;;6144564;23;20404;-79
2023/03/09 12:48:26;;;;;;;2.63;0.47;;;15.40;78.80;;;;;;6141638;23;20031;-80
2023/03/09 12:51:18;;;;;;;1.67;0.40;;;15.40;76.90;;;;;;6144313;23;20475;-80
2023/03/09 12:54:19;;;;;;;9.48;0.50;;;15.50;77.40;;;;;;6168702;23;20025;-80
2023/03/09 12:56:46;;;;;;;0.98;0.55;;;15.50;76.60;;;;;;6145564;23;20025;-80
2023/03/09 12:59:21;;;;;;;1.48;0.35;;;15.40;77.60;;;;;;6145190;23;20430;-81
2023/03/09 13:01:48;;;;;;;0.95;0.30;;;15.30;77.90;;;;;;6147322;23;20020;-81
2023/03/09 13:04:23;;;;;;;1.50;0.50;;;15.30;78.10;;;;;;6150123;23;20444;-80
2023/03/09 13:06:51;;;;;;;4.10;1.13;;;15.40;77.40;;;;;;6151742;23;20143;-80
2023/03/09 13:09:25;;;;;;;2.45;0.32;;;15.40;77.80;;;;;;6175240;23;20031;-80
2023/03/09 13:12:03;;;;;;;4.53;1.15;;;15.50;76.50;;;;;;6151503;23;20380;-80
2023/03/09 13:14:33;;;;;;;7.30;1.75;;;15.50;75.80;;;;;;6181160;23;20072;-81
2023/03/09 13:17:05;;;;;;;4.65;1.27;;;15.50;75.20;;;;;;6145678;23;20052;-80
2023/03/09 13:19:35;;;;;;;4.15;1.45;;;15.50;75.30;;;;;;6139775;23;20072;-80
2023/03/09 13:22:04;;;;;;;7.70;3.30;;;15.50;75.30;;;;;;6139849;23;20540;-80
2023/03/09 13:24:38;;;;;;;8.57;2.92;;;15.60;74.70;;;;;;6116416;23;20021;-80
2023/03/09 13:27:11;;;;;;;10.95;4.78;;;15.60;73.60;;;;;;6148995;23;20045;-80
2023/03/09 13:29:52;;;;;;;6.97;2.03;;;15.50;72.00;;;;;;6144291;23;20075;-80
2023/03/09 13:32:37;;;;;;;2.13;0.50;;;15.50;71.90;;;;;;6139562;23;20099;-80
2023/03/09 13:35:18;;;;;;;3.33;1.23;;;15.60;71.00;;;;;;6144084;23;20451;-81
2023/03/09 13:37:46;;;;;;;2.20;0.25;;;15.60;71.30;;;;;;6166064;23;20029;-80
2023/03/09 13:40:16;;;;;;;1.30;0.20;;;15.60;70.50;;;;;;6140884;23;20036;-81
2023/03/09 13:42:44;;;;;;;2.25;0.50;;;15.50;70.10;;;;;;6118856;23;20036;-81
2023/03/09 13:45:27;;;;;;;3.03;0.75;;;15.60;70.10;;;;;;6143433;23;20433;-81
2023/03/09 13:48:06;;;;;;;1.00;0.32;;;15.30;70.10;;;;;;6174472;23;20100;-80
2023/03/09 13:50:36;;;;;;;3.95;0.40;;;15.50;70.90;;;;;;6143712;23;20025;-81
2023/03/09 13:53:16;;;;;;;8.93;1.05;;;15.50;68.30;;;;;;6180178;23;20075;-80
2023/03/09 13:56:05;;;;;;;4.95;0.65;;;15.60;67.90;;;;;;6155075;23;20071;-81
2023/03/09 13:58:41;;;;;;;8.00;0.60;;;15.60;67.90;;;;;;6157330;23;20032;-80
2023/03/09 14:01:23;;;;;;;4.95;0.50;;;15.60;67.60;;;;;;6154654;23;20401;-80
2023/03/09 14:03:59;;;;;;;8.57;0.77;;;15.70;67.70;;;;;;6157072;23;20075;-80
2023/03/09 14:06:36;;;;;;;4.43;0.93;;;16.00;66.80;;;;;;6157669;23;20123;-81
2023/03/09 14:09:36;;;;;;;2.58;0.52;;;16.10;67.00;;;;;;6156186;23;20016;-78
2023/03/09 14:12:03;;;;;;;8.07;1.30;;;16.10;65.90;;;;;;6176892;23;20017;-81
2023/03/09 14:14:34;;;;;;;11.20;3.75;;;16.00;66.30;;;;;;6154111;23;20048;-81
2023/03/09 14:17:02;;;;;;;17.10;8.65;;;15.90;66.50;;;;;;6178269;23;20024;-81
2023/03/09 14:19:31;;;;;;;7.43;1.73;;;15.80;66.50;;;;;;6151697;23;20027;-81
2023/03/09 14:22:01;;;;;;;21.27;2.22;;;15.70;66.80;;;;;;6151750;23;20028;-80
2023/03/09 14:24:34;;;;;;;2.45;0.50;;;15.60;67.10;;;;;;6151075;23;20464;-81
2023/03/09 14:27:29;;;;;;;10.10;1.52;;;15.60;67.20;;;;;;6152128;23;20017;-80
2023/03/09 14:29:57;;;;;;;5.70;1.50;;;15.70;66.30;;;;;;6149183;23;20028;-81
2023/03/09 14:32:29;;;;;;;5.50;0.65;;;15.70;65.50;;;;;;6149653;23;20028;-80
2023/03/09 14:35:17;;;;;;;9.05;2.83;;;15.60;66.10;;;;;;6150466;23;20744;-80
2023/03/09 14:37:52;;;;;;;19.55;4.47;;;15.60;66.40;;;;;;6147575;23;20031;-79
2023/03/09 14:40:31;;;;;;;10.45;1.52;;;15.40;66.40;;;;;;6153783;23;20455;-80
2023/03/09 14:43:24;;;;;;;10.05;1.75;;;15.30;63.90;;;;;;6148678;23;20051;-80
2023/03/09 14:45:52;;;;;;;2.90;0.70;;;15.50;64.50;;;;;;6160697;23;20432;-80
2023/03/09 14:48:19;;;;;;;5.60;0.90;;;15.40;64.80;;;;;;6146674;23;20534;-80
2023/03/09 14:50:47;;;;;;;2.55;0.47;;;15.30;65.70;;;;;;6148847;23;20020;-79
2023/03/09 14:53:15;;;;;;;3.03;0.63;;;15.30;65.30;;;;;;6148363;23;20526;-80
2023/03/09 14:55:42;;;;;;;2.35;0.20;;;15.30;65.10;;;;;;6148419;23;20054;-80
2023/03/09 14:58:11;;;;;;;1.48;0.30;;;15.30;65.30;;;;;;6146569;23;20024;-80
2023/03/09 15:00:39;;;;;;;1.92;0.20;;;15.30;65.10;;;;;;6142694;23;20079;-80
2023/03/09 15:03:10;;;;;;;4.45;1.08;;;15.30;65.50;;;;;;6172232;23;20021;-80
2023/03/09 15:05:37;;;;;;;1.27;0.20;;;15.10;66.00;;;;;;6169296;23;20027;-80
2023/03/09 15:08:05;;;;;;;3.72;0.47;;;15.10;65.90;;;;;;6168573;23;20119;-80
2023/03/09 15:10:33;;;;;;;1.80;0.20;;;15.10;66.30;;;;;;6144380;23;20028;-80
2023/03/09 15:13:00;;;;;;;2.10;0.10;;;15.10;65.50;;;;;;6147591;23;20028;-80
2023/03/09 15:15:27;;;;;;;2.58;0.03;;;15.10;66.20;;;;;;6147300;23;20480;-80
2023/03/09 15:17:56;;;;;;;5.07;0.55;;;15.00;66.80;;;;;;6145137;23;20136;-80
2023/03/09 15:20:25;;;;;;;1.42;0.10;;;15.10;65.90;;;;;;6142361;23;20084;-80
2023/03/09 15:23:10;;;;;;;2.92;0.38;;;15.20;66.20;;;;;;6177541;23;20079;-80
2023/03/09 15:25:37;;;;;;;1.75;0.30;;;15.30;66.40;;;;;;6168834;23;20025;-80
2023/03/09 15:28:05;;;;;;;1.55;0.20;;;15.30;66.10;;;;;;6144347;23;20025;-80
2023/03/09 15:30:32;;;;;;;4.70;0.77;;;15.60;64.80;;;;;;6168216;23;20071;-80
2023/03/09 15:33:00;;;;;;;1.48;0.30;;;15.60;65.10;;;;;;6143559;23;20025;-79
2023/03/09 15:35:27;;;;;;;2.42;0.25;;;15.60;64.20;;;;;;6169896;23;20044;-80
2023/03/09 15:37:57;;;;;;;11.85;0.90;;;15.80;64.30;;;;;;6171128;23;20028;-80
2023/03/09 15:40:25;;;;;;;4.03;0.85;;;15.50;64.20;;;;;;6168590;23;20168;-79
2023/03/09 15:42:54;;;;;;;1.67;0.20;;;15.40;64.10;;;;;;6166410;23;20044;-80
2023/03/09 15:45:23;;;;;;;2.10;0.80;;;15.30;63.80;;;;;;6171337;23;20076;-80
2023/03/09 15:47:54;;;;;;;6.07;0.38;;;15.20;63.20;;;;;;6145584;23;20504;-79
2023/03/09 15:50:21;;;;;;;3.63;0.20;;;15.20;62.50;;;;;;6167650;23;20021;-79
2023/03/09 15:52:50;;;;;;;3.80;0.30;;;15.20;62.30;;;;;;6167414;23;20049;-80
2023/03/09 15:55:17;;;;;;;2.92;0.40;;;15.00;62.90;;;;;;6146756;23;20372;-80
2023/03/09 15:57:45;;;;;;;3.50;0.40;;;15.00;62.40;;;;;;6168267;23;20021;-79
2023/03/09 16:00:13;;;;;;;2.60;0.52;;;15.20;61.40;;;;;;6167170;23;20431;-81
2023/03/09 16:02:41;;;;;;;2.15;0.47;;;15.10;61.60;;;;;;6167102;23;20397;-80
2023/03/09 16:05:09;;;;;;;3.22;0.40;;;14.90;62.20;;;;;;6145314;23;20465;-80
2023/03/09 16:07:36;;;;;;;2.45;0.40;;;14.40;62.20;;;;;;6142560;23;20017;-79
2023/03/09 16:10:04;;;;;;;0.90;0.20;;;14.80;62.80;;;;;;6142332;23;20432;-80
2023/03/09 16:12:32;;;;;;;4.82;0.43;;;14.80;62.20;;;;;;6166731;23;20118;-79
2023/03/09 16:15:05;;;;;;;5.70;0.90;;;14.90;62.50;;;;;;6142908;23;20028;-80
2023/03/09 16:17:33;;;;;;;4.85;1.20;;;14.90;62.30;;;;;;6142443;23;20021;-80
2023/03/09 16:20:03;;;;;;;1.48;0.30;;;14.80;62.90;;;;;;6167619;23;20104;-80
2023/03/09 16:22:32;;;;;;;4.35;0.30;;;14.70;63.00;;;;;;6144135;23;20025;-79
2023/03/09 16:25:00;;;;;;;3.35;0.55;;;14.80;63.00;;;;;;6145717;23;20025;-80
2023/03/09 16:27:27;;;;;;;3.80;0.30;;;14.80;63.00;;;;;;6141123;23;20474;-80
2023/03/09 16:29:55;;;;;;;2.45;0.70;;;14.60;63.60;;;;;;6169752;23;20385;-80
2023/03/09 16:32:22;;;;;;;1.00;0.30;;;14.70;63.70;;;;;;6142438;23;20025;-80
2023/03/09 16:34:51;;;;;;;3.08;0.60;;;14.40;64.40;;;;;;6171160;23;20099;-80
2023/03/09 16:37:20;;;;;;;4.53;1.13;;;14.30;64.70;;;;;;6165701;23;20025;-80
2023/03/09 16:39:48;;;;;;;2.65;1.17;;;14.30;65.10;;;;;;6166866;23;20024;-80
2023/03/09 16:42:16;;;;;;;3.90;1.83;;;14.10;65.50;;;;;;6168471;23;20178;-80
2023/03/09 16:44:49;;;;;;;5.45;1.55;;;14.10;66.10;;;;;;6145779;23;20021;-80
2023/03/09 16:47:17;;;;;;;4.50;0.90;;;14.10;65.80;;;;;;6166616;23;20021;-80
2023/03/09 16:49:44;;;;;;;3.42;0.80;;;15.10;67.10;;;;;;6164927;23;20021;-80
2023/03/09 16:52:12;;;;;;;2.67;1.10;;;13.80;66.70;;;;;;6164092;23;20581;-80
2023/03/09 16:54:39;;;;;;;2.17;0.30;;;14.00;66.60;;;;;;6113437;23;20028;-80
2023/03/09 16:57:07;;;;;;;4.45;1.02;;;14.00;66.70;;;;;;6166677;23;20024;-80
2023/03/09 16:59:34;;;;;;;2.00;0.45;;;13.90;67.20;;;;;;6140074;23;20582;-80
2023/03/09 17:02:02;;;;;;;6.72;1.38;;;13.80;67.50;;;;;;6139194;23;20052;-80
2023/03/09 17:04:30;;;;;;;4.35;1.80;;;13.90;67.60;;;;;;6142660;23;20124;-80
2023/03/09 17:06:57;;;;;;;9.02;4.20;;;13.80;68.10;;;;;;6115901;23;20226;-80
2023/03/09 17:09:24;;;;;;;5.32;1.70;;;13.70;68.40;;;;;;6144026;23;20072;-80
2023/03/09 17:11:52;;;;;;;5.57;1.95;;;13.60;68.40;;;;;;6127821;23;20352;-80
2023/03/09 17:14:20;;;;;;;5.93;1.65;;;13.70;68.60;;;;;;6151456;23;20491;-80
2023/03/09 17:16:48;;;;;;;5.93;1.38;;;13.70;68.70;;;;;;6176259;23;20028;-80
2023/03/09 17:19:16;;;;;;;3.78;1.20;;;13.50;69.10;;;;;;6152098;23;20835;-80
2023/03/09 17:21:46;;;;;;;6.85;1.90;;;13.50;69.50;;;;;;6154367;23;20334;-80
2023/03/09 17:24:14;;;;;;;3.35;1.00;;;13.40;70.00;;;;;;6129497;23;20104;-80
2023/03/09 17:26:42;;;;;;;3.97;1.40;;;13.30;70.30;;;;;;6155264;23;20020;-79
2023/03/09 17:29:10;;;;;;;3.75;1.00;;;13.40;70.70;;;;;;6181186;23;20021;-79
2023/03/09 17:31:38;;;;;;;7.45;2.42;;;12.20;70.20;;;;;;6155247;23;20021;-80
2023/03/09 17:34:05;;;;;;;6.18;1.83;;;13.20;71.30;;;;;;6179332;23;20040;-80
2023/03/09 17:36:34;;;;;;;6.95;1.95;;;13.40;71.90;;;;;;6156407;23;20057;-80
2023/03/09 17:39:01;;;;;;;4.68;1.85;;;13.20;71.60;;;;;;6178430;23;20035;-80
2023/03/09 17:41:29;;;;;;;19.20;8.55;;;12.10;71.40;;;;;;6180866;23;20013;-80
2023/03/09 17:43:57;;;;;;;13.25;6.10;;;13.10;72.40;;;;;;6180480;23;20524;-80
2023/03/09 17:46:27;;;;;;;17.17;8.27;;;12.80;72.80;;;;;;6177711;23;20020;-80
2023/03/09 17:48:54;;;;;;;18.27;8.65;;;12.70;73.40;;;;;;6153177;23;20025;-80
2023/03/09 17:51:22;;;;;;;12.30;5.15;;;12.50;73.60;;;;;;6179586;23;20782;-80
2023/03/09 17:53:51;;;;;;;14.73;7.05;;;12.50;74.00;;;;;;6179186;23;20079;-80
2023/03/09 17:56:21;;;;;;;14.48;9.07;;;12.30;74.60;;;;;;6179884;23;20079;-80
2023/03/09 17:58:50;;;;;;;17.27;11.98;;;12.20;75.50;;;;;;6142884;23;20724;-80
2023/03/09 18:01:26;;;;;;;20.50;15.48;;;12.00;76.60;;;;;;6154069;23;20096;-80
2023/03/09 18:03:56;;;;;;;20.48;12.73;;;11.80;76.90;;;;;;6179325;23;20032;-80
2023/03/09 18:06:27;;;;;;;14.25;8.18;;;12.10;77.70;;;;;;6157045;23;20024;-80
2023/03/09 18:08:57;;;;;;;10.68;6.00;;;11.30;77.60;;;;;;6180947;23;20025;-80
2023/03/09 18:11:30;;;;;;;9.48;5.72;;;11.90;78.40;;;;;;6180014;23;20415;-80
2023/03/09 18:14:02;;;;;;;7.00;3.17;;;11.70;78.80;;;;;;6154837;23;20025;-80
2023/03/09 18:16:30;;;;;;;9.23;3.13;;;11.50;78.80;;;;;;6156083;23;20021;-80
2023/03/09 18:18:58;;;;;;;6.47;3.25;;;11.50;79.20;;;;;;6159495;23;20024;-80
2023/03/09 18:21:27;;;;;;;6.97;2.58;;;11.10;79.30;;;;;;6181564;23;20029;-80
2023/03/09 18:23:56;;;;;;;6.35;2.80;;;11.20;79.90;;;;;;6156428;23;20112;-80
2023/03/09 18:26:28;;;;;;;4.50;1.30;;;10.30;79.80;;;;;;6181317;23;20701;-80
2023/03/09 18:28:57;;;;;;;7.38;2.03;;;11.20;80.40;;;;;;6156848;23;20016;-80
2023/03/09 18:31:27;;;;;;;12.27;4.47;;;11.20;80.80;;;;;;6181011;23;20021;-80
2023/03/09 18:33:59;;;;;;;10.30;3.33;;;11.20;81.10;;;;;;6156171;23;20029;-80